Time;durP1;ratioP1;P1;durP2;ratioP2;P2;SDS_P1;SDS_P2;PMS_P1;PMS_P2;Temp;Humidity;BMP_temperature;BMP_pressure;BME280_temperature;BME280_humidity;BME280_pressure;Samples;Min_cycle;Max_cycle;Signal;HPM_P1;HPM_P2
2020/12/27 00:00:50;;;;;;;81.53;30.65;;;-5.90;99.90;;;;;;5036061;28;20482;-78
2020/12/27 00:03:16;;;;;;;70.72;30.63;;;-5.90;99.90;;;;;;5018212;28;20032;-78
2020/12/27 00:05:44;;;;;;;72.28;28.48;;;-5.90;99.90;;;;;;5018176;28;20026;-78
2020/12/27 00:08:10;;;;;;;80.90;33.90;;;-6.00;99.90;;;;;;5018267;28;20431;-78
2020/12/27 00:10:35;;;;;;;81.95;30.63;;;-6.00;99.90;;;;;;5035828;28;20033;-79
2020/12/27 00:13:01;;;;;;;74.78;30.80;;;-6.00;99.90;;;;;;5035676;28;20112;-78
2020/12/27 00:15:27;;;;;;;86.22;33.08;;;-6.00;99.90;;;;;;5035501;28;20053;-79
2020/12/27 00:17:53;;;;;;;103.50;33.90;;;-6.00;99.90;;;;;;5035193;28;20035;-78
2020/12/27 00:20:18;;;;;;;99.10;37.83;;;-6.20;99.90;;;;;;5035735;28;20064;-78
2020/12/27 00:22:44;;;;;;;107.18;38.33;;;-6.20;99.90;;;;;;5017377;28;20095;-78
2020/12/27 00:25:10;;;;;;;106.88;43.33;;;-6.20;99.90;;;;;;5017862;28;20370;-78
2020/12/27 00:27:36;;;;;;;95.18;38.65;;;-6.30;99.90;;;;;;5035472;28;20041;-78
2020/12/27 00:30:03;;;;;;;107.73;39.70;;;-6.30;99.90;;;;;;5017741;28;20483;-78
2020/12/27 00:32:29;;;;;;;94.00;36.37;;;-6.30;99.90;;;;;;5035430;28;20479;-78
2020/12/27 00:34:54;;;;;;;102.57;38.53;;;-6.40;99.90;;;;;;5017688;28;20067;-78
2020/12/27 00:37:21;;;;;;;85.47;33.77;;;-6.30;99.90;;;;;;5035350;28;20036;-78
2020/12/27 00:39:48;;;;;;;88.35;31.20;;;-6.30;99.90;;;;;;5035234;28;20040;-78
2020/12/27 00:42:14;;;;;;;80.53;31.52;;;-6.30;99.90;;;;;;5017568;28;20128;-78
2020/12/27 00:44:40;;;;;;;83.60;32.30;;;-6.40;99.90;;;;;;5017531;28;20025;-78
2020/12/27 00:47:05;;;;;;;69.53;28.40;;;-6.40;99.90;;;;;;5017437;28;20045;-78
2020/12/27 00:49:31;;;;;;;64.95;25.52;;;-6.40;99.90;;;;;;5017454;28;20025;-78
2020/12/27 00:51:57;;;;;;;70.27;26.73;;;-6.40;99.90;;;;;;5017327;28;20503;-78
2020/12/27 00:54:22;;;;;;;69.23;25.67;;;-6.40;99.90;;;;;;5035104;28;20487;-77
2020/12/27 00:56:50;;;;;;;72.33;26.07;;;-6.40;99.90;;;;;;5035010;28;20046;-78
2020/12/27 00:59:16;;;;;;;52.67;20.50;;;-6.50;99.90;;;;;;5017136;28;20068;-78
2020/12/27 01:01:41;;;;;;;50.83;20.40;;;-6.50;99.90;;;;;;5017079;28;20414;-79
2020/12/27 01:04:07;;;;;;;49.13;20.57;;;-6.50;99.90;;;;;;5017031;28;20029;-78
2020/12/27 01:06:34;;;;;;;52.73;21.00;;;-6.50;99.90;;;;;;5034819;28;20026;-78
2020/12/27 01:09:00;;;;;;;47.63;20.53;;;-6.60;99.90;;;;;;5035220;28;20026;-78
2020/12/27 01:11:25;;;;;;;53.00;21.87;;;-6.60;99.90;;;;;;5016995;28;20032;-78
2020/12/27 01:13:51;;;;;;;54.30;21.63;;;-6.60;99.90;;;;;;5034627;28;20028;-78
2020/12/27 01:16:20;;;;;;;48.27;19.27;;;-6.60;99.90;;;;;;5016968;28;20390;-78
2020/12/27 01:18:47;;;;;;;46.57;17.00;;;-6.60;99.90;;;;;;5016644;28;20041;-79
2020/12/27 01:21:28;;;;;;;50.93;20.03;;;-6.60;99.90;;;;;;5016915;28;20025;-78
2020/12/27 01:23:54;;;;;;;43.80;17.97;;;-6.60;99.90;;;;;;5034516;28;20045;-78
2020/12/27 01:26:34;;;;;;;36.50;16.52;;;-6.60;99.90;;;;;;5034542;28;20022;-78
2020/12/27 01:29:00;;;;;;;43.05;16.48;;;-6.60;99.90;;;;;;5034752;28;20025;-78
2020/12/27 01:31:27;;;;;;;38.77;16.97;;;-6.60;99.90;;;;;;5034416;28;20072;-78
2020/12/27 01:33:53;;;;;;;39.28;17.63;;;-6.60;99.90;;;;;;5016343;28;20040;-78
2020/12/27 01:36:33;;;;;;;39.93;17.47;;;-6.60;99.90;;;;;;5015759;28;20024;-79
2020/12/27 01:39:00;;;;;;;37.47;18.15;;;-6.60;99.90;;;;;;5016398;28;20044;-78
2020/12/27 01:41:26;;;;;;;34.72;14.80;;;-6.60;99.90;;;;;;5016372;28;20021;-78
2020/12/27 01:44:09;;;;;;;42.60;16.83;;;-6.60;99.90;;;;;;5016358;28;20087;-79
2020/12/27 01:46:35;;;;;;;;;;;-6.60;99.90;;;;;;5016760;28;20079;-78
2020/12/27 01:49:06;;;;;;;34.97;13.70;;;-6.60;99.90;;;;;;5033980;28;19987;-78
2020/12/27 01:51:31;;;;;;;39.93;15.47;;;-6.60;99.90;;;;;;5016288;28;20030;-78
2020/12/27 01:53:57;;;;;;;40.27;16.83;;;-6.60;99.90;;;;;;5016071;28;20079;-78
2020/12/27 01:56:33;;;;;;;40.97;18.60;;;-6.60;99.90;;;;;;5033979;28;20032;-78
2020/12/27 01:59:05;;;;;;;46.58;18.13;;;-6.50;99.90;;;;;;5016042;28;20033;-78
2020/12/27 02:01:32;;;;;;;44.13;19.27;;;-6.50;99.90;;;;;;5033844;28;20075;-78
2020/12/27 02:04:02;;;;;;;37.20;15.73;;;-6.50;99.90;;;;;;5033682;28;20033;-78
2020/12/27 02:06:28;;;;;;;30.83;14.88;;;-6.50;99.90;;;;;;5033796;28;20109;-78
2020/12/27 02:08:55;;;;;;;41.88;16.08;;;-6.40;99.90;;;;;;5034087;28;20391;-78
2020/12/27 02:11:21;;;;;;;39.07;16.23;;;-6.40;99.90;;;;;;5015945;28;20474;-78
2020/12/27 02:13:56;;;;;;;32.33;14.90;;;-6.30;99.90;;;;;;5033550;28;20068;-78
2020/12/27 02:16:24;;;;;;;30.87;14.90;;;-6.20;99.90;;;;;;5015836;28;20113;-78
2020/12/27 02:18:51;;;;;;;37.65;16.00;;;-6.10;99.90;;;;;;5015479;28;20040;-78
2020/12/27 02:21:18;;;;;;;40.22;15.88;;;-6.10;99.90;;;;;;5032547;28;20487;-78
2020/12/27 02:23:44;;;;;;;31.77;15.15;;;-6.10;99.90;;;;;;5015654;28;20040;-78
2020/12/27 02:26:10;;;;;;;47.25;16.35;;;-6.10;99.90;;;;;;5033395;28;20025;-78
2020/12/27 02:28:36;;;;;;;46.88;17.90;;;-6.10;99.90;;;;;;5033233;28;20111;-78
2020/12/27 02:31:02;;;;;;;46.40;17.13;;;-6.20;99.90;;;;;;5015525;28;20033;-78
2020/12/27 02:33:27;;;;;;;39.40;17.77;;;-6.20;99.90;;;;;;5033167;28;20423;-78
2020/12/27 02:35:53;;;;;;;36.72;15.15;;;-6.20;99.90;;;;;;5033282;28;20489;-78
2020/12/27 02:38:19;;;;;;;35.88;15.77;;;-6.20;99.90;;;;;;5033040;28;20038;-78
2020/12/27 02:40:44;;;;;;;35.20;14.13;;;-6.20;99.90;;;;;;5033163;28;20017;-78
2020/12/27 02:43:18;;;;;;;27.85;13.02;;;-6.20;99.90;;;;;;5015391;28;20105;-78
2020/12/27 02:45:47;;;;;;;29.92;13.30;;;-6.10;99.90;;;;;;5033254;28;20029;-78
2020/12/27 02:48:12;;;;;;;30.08;12.10;;;-6.10;99.90;;;;;;5033055;28;20030;-78
2020/12/27 02:50:38;;;;;;;24.27;11.55;;;-6.10;99.90;;;;;;5015467;28;20103;-78
2020/12/27 02:53:04;;;;;;;18.90;10.43;;;-6.00;99.90;;;;;;5032903;28;20080;-78
2020/12/27 02:55:33;;;;;;;23.80;11.98;;;-5.90;99.90;;;;;;5015438;28;20025;-78
2020/12/27 02:57:59;;;;;;;24.10;11.85;;;-5.90;99.90;;;;;;5015079;28;20029;-78
2020/12/27 03:00:29;;;;;;;20.30;9.68;;;-5.80;99.90;;;;;;5015211;28;20029;-77
2020/12/27 03:02:56;;;;;;;28.65;12.52;;;-5.80;99.90;;;;;;5032855;28;20499;-78
2020/12/27 03:05:22;;;;;;;28.92;11.63;;;-5.80;99.90;;;;;;5032881;28;20026;-78
2020/12/27 03:07:48;;;;;;;21.48;11.05;;;-5.70;99.90;;;;;;5032918;28;20513;-78
2020/12/27 03:10:14;;;;;;;35.10;12.38;;;-5.70;99.90;;;;;;5032851;28;20075;-78
2020/12/27 03:12:42;;;;;;;26.50;12.60;;;-5.70;99.90;;;;;;5014888;28;20071;-78
2020/12/27 03:15:08;;;;;;;29.60;12.32;;;-5.70;99.90;;;;;;5032742;28;20382;-78
2020/12/27 03:17:34;;;;;;;20.58;11.82;;;-5.80;99.90;;;;;;5015027;28;20109;-78
2020/12/27 03:19:59;;;;;;;24.30;11.70;;;-5.70;99.90;;;;;;5032656;28;20042;-79
2020/12/27 03:22:25;;;;;;;22.50;11.35;;;-5.80;99.90;;;;;;5014943;28;20032;-78
2020/12/27 03:24:51;;;;;;;23.17;10.45;;;-5.80;99.90;;;;;;5015013;28;20029;-79
2020/12/27 03:27:16;;;;;;;17.48;8.32;;;-5.80;99.90;;;;;;5032516;28;20021;-78
2020/12/27 03:29:42;;;;;;;18.50;8.52;;;-5.70;99.90;;;;;;5032602;28;20022;-78
2020/12/27 03:32:07;;;;;;;15.45;8.50;;;-5.60;99.90;;;;;;5014880;28;20018;-78
2020/12/27 03:34:33;;;;;;;23.77;9.50;;;-5.50;99.90;;;;;;5032530;28;20013;-79
2020/12/27 03:36:59;;;;;;;19.17;9.32;;;-5.50;99.90;;;;;;5014820;28;20034;-78
2020/12/27 03:39:24;;;;;;;17.00;9.82;;;-5.50;99.90;;;;;;5014744;28;20026;-78
2020/12/27 03:41:50;;;;;;;17.55;8.00;;;-5.50;99.90;;;;;;5014702;28;20506;-78
2020/12/27 03:44:15;;;;;;;14.98;8.23;;;-5.50;99.90;;;;;;5014800;28;20383;-78
2020/12/27 03:46:41;;;;;;;18.85;8.70;;;-5.40;99.90;;;;;;5032440;28;20040;-78
2020/12/27 03:49:07;;;;;;;19.52;8.93;;;-5.40;99.90;;;;;;5014665;28;20048;-79
2020/12/27 03:51:32;;;;;;;21.33;8.75;;;-5.30;99.90;;;;;;5032384;28;20029;-78
2020/12/27 03:53:58;;;;;;;17.10;8.10;;;-5.20;99.90;;;;;;5032416;28;20104;-78
2020/12/27 03:56:24;;;;;;;15.00;7.78;;;-5.20;99.90;;;;;;5014715;28;20479;-78
2020/12/27 03:58:50;;;;;;;18.15;9.30;;;-5.20;99.90;;;;;;5016409;28;20029;-78
2020/12/27 04:01:16;;;;;;;20.80;9.18;;;-5.20;99.90;;;;;;5018395;28;20072;-78
2020/12/27 04:03:41;;;;;;;14.43;8.75;;;-5.10;99.90;;;;;;5035994;28;20439;-78
2020/12/27 04:06:07;;;;;;;46.20;14.60;;;-5.10;99.90;;;;;;5036060;28;20064;-79
2020/12/27 04:08:33;;;;;;;73.50;21.52;;;-5.10;99.90;;;;;;5035670;28;20044;-78
2020/12/27 04:10:58;;;;;;;66.22;18.85;;;-5.10;99.90;;;;;;5018195;28;20022;-78
2020/12/27 04:13:24;;;;;;;92.00;26.13;;;-5.10;99.90;;;;;;5018113;28;20398;-78
2020/12/27 04:15:50;;;;;;;156.23;45.42;;;-5.20;99.90;;;;;;5018160;28;20063;-78
2020/12/27 04:18:15;;;;;;;47.20;19.17;;;-5.10;99.90;;;;;;5035560;28;20112;-78
2020/12/27 04:20:41;;;;;;;25.08;10.80;;;-5.20;99.90;;;;;;5017898;28;20124;-79
2020/12/27 04:23:07;;;;;;;28.27;10.73;;;-5.10;99.90;;;;;;5017707;28;20036;-78
2020/12/27 04:25:33;;;;;;;29.77;9.30;;;-5.10;99.90;;;;;;5035602;28;20025;-78
2020/12/27 04:27:58;;;;;;;33.92;12.73;;;-5.20;99.90;;;;;;5035589;28;20112;-78
2020/12/27 04:30:24;;;;;;;37.03;12.70;;;-5.20;99.90;;;;;;5017799;28;20017;-78
2020/12/27 04:32:49;;;;;;;88.80;23.98;;;-5.20;99.90;;;;;;5017737;28;20361;-77
2020/12/27 04:35:15;;;;;;;94.80;28.15;;;-5.20;99.90;;;;;;5017748;28;20465;-78
2020/12/27 04:37:41;;;;;;;64.35;18.25;;;-5.20;99.90;;;;;;5017650;28;20387;-78
2020/12/27 04:40:06;;;;;;;76.13;23.50;;;-5.20;99.90;;;;;;5034451;28;20426;-78
2020/12/27 04:42:32;;;;;;;51.25;18.40;;;-5.20;99.90;;;;;;5035196;28;20498;-78
2020/12/27 04:44:59;;;;;;;54.95;18.38;;;-5.20;99.90;;;;;;5035164;28;20167;-78
2020/12/27 04:47:25;;;;;;;96.63;27.05;;;-5.20;99.90;;;;;;5017383;28;20034;-79
2020/12/27 04:49:52;;;;;;;107.97;32.97;;;-5.30;99.90;;;;;;5017442;28;20029;-78
2020/12/27 04:52:20;;;;;;;144.48;38.25;;;-5.30;99.90;;;;;;5035076;28;20040;-78
2020/12/27 04:54:50;;;;;;;146.35;40.33;;;-5.30;99.90;;;;;;5035071;28;20022;-78
2020/12/27 04:57:18;;;;;;;60.65;18.73;;;-5.40;99.90;;;;;;5035017;28;20083;-78
2020/12/27 04:59:46;;;;;;;45.97;14.18;;;-5.50;99.90;;;;;;5017239;28;20037;-79
2020/12/27 05:02:13;;;;;;;33.67;11.48;;;-5.60;99.90;;;;;;5034531;28;20025;-78
2020/12/27 05:04:39;;;;;;;34.97;12.35;;;-5.60;99.90;;;;;;5017102;28;20017;-79
2020/12/27 05:07:05;;;;;;;37.08;15.68;;;-5.60;99.90;;;;;;5017062;28;20368;-78
2020/12/27 05:09:31;;;;;;;39.63;14.80;;;-5.70;99.90;;;;;;5016955;28;20032;-78
2020/12/27 05:11:57;;;;;;;43.65;15.18;;;-5.70;99.90;;;;;;5016466;28;20025;-78
2020/12/27 05:14:27;;;;;;;24.75;9.77;;;-5.70;99.90;;;;;;5016923;28;20022;-78
2020/12/27 05:16:55;;;;;;;36.63;13.93;;;-5.70;99.90;;;;;;5034688;28;20087;-78
2020/12/27 05:19:21;;;;;;;130.73;38.20;;;-5.70;99.90;;;;;;5034610;28;20493;-78
2020/12/27 05:21:47;;;;;;;48.63;17.25;;;-5.80;99.90;;;;;;5016713;28;20019;-77
2020/12/27 05:24:13;;;;;;;34.03;13.45;;;-5.90;99.90;;;;;;5034586;28;20383;-79
2020/12/27 05:26:41;;;;;;;31.73;14.02;;;-5.90;99.90;;;;;;5016565;28;20084;-78
2020/12/27 05:29:08;;;;;;;52.90;17.52;;;-6.00;99.90;;;;;;5032875;28;20422;-78
2020/12/27 05:31:35;;;;;;;25.13;11.50;;;-6.00;99.90;;;;;;5015722;28;20021;-78
2020/12/27 05:34:02;;;;;;;28.30;11.85;;;-6.00;99.90;;;;;;5034312;28;20025;-78
2020/12/27 05:36:28;;;;;;;26.40;11.15;;;-6.00;99.90;;;;;;5016591;28;20033;-78
2020/12/27 05:38:55;;;;;;;21.08;9.93;;;-6.00;99.90;;;;;;5034107;28;20037;-78
2020/12/27 05:41:28;;;;;;;28.42;12.00;;;-6.10;99.90;;;;;;5034220;28;20067;-78
2020/12/27 05:44:04;;;;;;;27.25;12.20;;;-6.10;99.90;;;;;;5034151;28;20049;-78
2020/12/27 05:46:30;;;;;;;31.73;12.10;;;-6.10;99.90;;;;;;5016393;28;20048;-78
2020/12/27 05:48:58;;;;;;;30.63;12.85;;;-6.20;99.90;;;;;;5016197;28;20017;-78
2020/12/27 05:51:24;;;;;;;22.17;11.80;;;-6.20;99.90;;;;;;5034046;28;20021;-78
2020/12/27 05:53:52;;;;;;;30.75;11.20;;;-6.20;99.90;;;;;;5016118;28;20116;-78
2020/12/27 05:56:19;;;;;;;27.20;11.07;;;-6.30;99.90;;;;;;5016249;28;20021;-78
2020/12/27 05:58:46;;;;;;;32.37;13.10;;;-6.30;99.90;;;;;;5016000;28;20140;-78
2020/12/27 06:01:23;;;;;;;31.10;13.60;;;-6.30;99.90;;;;;;5016142;28;20091;-78
2020/12/27 06:04:00;;;;;;;25.90;11.63;;;-6.30;99.90;;;;;;5033796;28;20071;-78
2020/12/27 06:07:00;;;;;;;25.40;11.57;;;-6.30;99.90;;;;;;5016013;28;20068;-78
2020/12/27 06:09:58;;;;;;;31.63;13.00;;;-6.30;99.90;;;;;;5029714;28;20438;-78
2020/12/27 06:12:52;;;;;;;35.00;13.23;;;-6.40;99.90;;;;;;5021735;28;20510;-78
2020/12/27 06:15:31;;;;;;;27.33;10.80;;;-6.40;99.90;;;;;;5009054;28;20116;-78
2020/12/27 06:18:10;;;;;;;26.08;10.52;;;-6.40;99.90;;;;;;5032279;28;20104;-78
2020/12/27 06:20:40;;;;;;;30.48;13.57;;;-6.30;99.90;;;;;;5015273;28;20038;-78
2020/12/27 06:23:06;;;;;;;36.90;15.20;;;-6.40;99.90;;;;;;5033276;28;20033;-79
2020/12/27 06:25:33;;;;;;;48.50;19.13;;;-6.40;99.90;;;;;;5015583;28;20120;-79
2020/12/27 06:28:00;;;;;;;59.00;20.30;;;-6.40;99.90;;;;;;5015453;28;20024;-78
2020/12/27 06:30:34;;;;;;;65.77;24.87;;;-6.40;99.90;;;;;;5015360;28;20036;-78
2020/12/27 06:33:17;;;;;;;228.37;73.20;;;-6.40;99.90;;;;;;5015444;28;20033;-78
2020/12/27 06:35:46;;;;;;;91.53;30.38;;;-6.40;99.90;;;;;;5015230;28;20022;-78
2020/12/27 06:38:23;;;;;;;28.43;14.63;;;-6.40;99.90;;;;;;5015421;28;20108;-78
2020/12/27 06:40:58;;;;;;;23.13;12.30;;;-6.50;99.90;;;;;;5015270;28;20395;-78
2020/12/27 06:43:25;;;;;;;28.87;13.23;;;-6.50;99.90;;;;;;5032803;28;20048;-78
2020/12/27 06:45:52;;;;;;;24.03;11.10;;;-6.50;99.90;;;;;;5032127;28;20021;-79
2020/12/27 06:48:32;;;;;;;27.52;13.07;;;-6.50;99.90;;;;;;5032838;28;20179;-77
2020/12/27 06:50:58;;;;;;;24.90;13.30;;;-6.50;99.90;;;;;;5033128;28;20041;-78
2020/12/27 06:53:43;;;;;;;23.83;12.35;;;-6.50;99.90;;;;;;5015108;28;20500;-78
2020/12/27 06:56:10;;;;;;;29.58;11.75;;;-6.50;99.90;;;;;;5015136;28;20072;-78
2020/12/27 06:58:37;;;;;;;31.10;14.73;;;-6.40;99.90;;;;;;5014984;28;20395;-78
2020/12/27 07:01:16;;;;;;;38.00;14.03;;;-6.40;99.90;;;;;;5032782;28;20017;-78
2020/12/27 07:03:46;;;;;;;18.83;10.63;;;-6.40;99.90;;;;;;5014885;28;20029;-78
2020/12/27 07:06:23;;;;;;;20.67;9.20;;;-6.30;99.90;;;;;;5015079;28;20391;-78
2020/12/27 07:08:49;;;;;;;30.85;12.40;;;-6.30;99.90;;;;;;5014893;28;20033;-78
2020/12/27 07:11:19;;;;;;;20.73;11.27;;;-6.30;99.90;;;;;;5024670;28;20075;-79
2020/12/27 07:13:47;;;;;;;26.97;12.50;;;-6.30;99.90;;;;;;5051062;28;20029;-79
2020/12/27 07:16:17;;;;;;;24.58;12.68;;;-6.30;99.90;;;;;;5033677;28;20025;-79
2020/12/27 07:18:49;;;;;;;21.70;11.30;;;-6.30;99.90;;;;;;5033544;28;20032;-79
2020/12/27 07:21:36;;;;;;;24.85;11.35;;;-6.30;99.90;;;;;;5050761;28;20033;-78
2020/12/27 07:24:05;;;;;;;29.58;12.35;;;-6.20;99.90;;;;;;5030243;28;20064;-79
2020/12/27 07:26:38;;;;;;;26.13;13.07;;;-6.20;99.90;;;;;;5030948;28;20112;-78
2020/12/27 07:29:07;;;;;;;25.48;11.50;;;-6.20;99.90;;;;;;5029485;28;20041;-79
2020/12/27 07:31:35;;;;;;;39.90;13.67;;;-6.20;99.90;;;;;;5030688;28;20108;-79
2020/12/27 07:34:01;;;;;;;29.15;13.40;;;-6.20;99.90;;;;;;5049897;28;20546;-79
2020/12/27 07:36:30;;;;;;;31.40;13.68;;;-6.20;99.90;;;;;;5033757;28;20023;-78
2020/12/27 07:39:02;;;;;;;24.55;11.95;;;-6.10;99.90;;;;;;5032210;28;20025;-79
2020/12/27 07:41:34;;;;;;;29.75;12.18;;;-6.00;99.90;;;;;;5033895;28;20070;-79
2020/12/27 07:44:00;;;;;;;135.15;36.70;;;-6.00;99.90;;;;;;5035355;28;20131;-79
2020/12/27 07:46:27;;;;;;;99.38;35.95;;;-5.90;99.90;;;;;;5055298;28;20501;-79
2020/12/27 07:48:54;;;;;;;100.57;40.42;;;-5.80;99.90;;;;;;5037363;28;20048;-80
2020/12/27 07:51:21;;;;;;;100.25;37.30;;;-5.60;99.90;;;;;;5037235;28;20032;-79
2020/12/27 07:53:52;;;;;;;115.72;40.15;;;-5.50;99.90;;;;;;5037878;28;20035;-79
2020/12/27 07:56:20;;;;;;;113.20;43.63;;;-5.40;99.90;;;;;;5039942;28;20117;-80
2020/12/27 07:58:50;;;;;;;174.30;58.33;;;-5.30;99.90;;;;;;5037527;28;20037;-80
2020/12/27 08:01:23;;;;;;;111.72;37.38;;;-5.20;99.90;;;;;;5055969;28;20544;-79
2020/12/27 08:03:54;;;;;;;121.93;41.13;;;-5.10;99.90;;;;;;5055918;28;20482;-77
2020/12/27 08:06:20;;;;;;;38.85;16.77;;;-5.00;99.90;;;;;;5050991;28;20025;-77
2020/12/27 08:08:47;;;;;;;33.17;14.38;;;-4.90;99.90;;;;;;5038630;28;20504;-78
2020/12/27 08:11:21;;;;;;;175.90;46.78;;;-4.80;99.90;;;;;;5054880;28;20025;-77
2020/12/27 08:13:55;;;;;;;243.55;62.42;;;-4.80;99.90;;;;;;5052992;28;20081;-78
2020/12/27 08:16:21;;;;;;;181.77;51.80;;;-4.70;99.90;;;;;;5052244;28;20064;-77
2020/12/27 08:18:47;;;;;;;238.27;66.78;;;-4.60;99.90;;;;;;5034917;28;20038;-77
2020/12/27 08:21:18;;;;;;;137.07;37.30;;;-4.50;99.90;;;;;;5048456;28;20061;-77
2020/12/27 08:24:04;;;;;;;215.35;62.33;;;-4.40;99.90;;;;;;5030683;28;20017;-77
2020/12/27 08:26:31;;;;;;;213.88;57.13;;;-4.20;99.90;;;;;;5033779;28;20040;-79
2020/12/27 08:29:15;;;;;;;486.77;139.93;;;-4.20;99.90;;;;;;5027538;28;20021;-79
2020/12/27 08:31:42;;;;;;;283.83;79.68;;;-4.10;98.40;;;;;;5044100;28;20057;-78
2020/12/27 08:34:15;;;;;;;357.48;95.00;;;-4.00;97.40;;;;;;5024990;28;20082;-78
2020/12/27 08:36:45;;;;;;;438.17;117.90;;;-3.90;98.00;;;;;;5050677;28;20024;-77
2020/12/27 08:39:24;;;;;;;306.23;87.43;;;-3.90;97.30;;;;;;5027172;28;20032;-78
2020/12/27 08:42:01;;;;;;;152.38;49.08;;;-3.80;97.70;;;;;;5029762;28;20021;-78
2020/12/27 08:44:48;;;;;;;303.60;80.95;;;-3.70;97.90;;;;;;5044262;28;20033;-78
2020/12/27 08:47:35;;;;;;;314.75;81.78;;;-3.70;96.20;;;;;;5045527;28;20060;-79
2020/12/27 08:50:03;;;;;;;216.18;60.63;;;-3.60;94.70;;;;;;5016501;28;20545;-78
2020/12/27 08:52:29;;;;;;;199.80;54.22;;;-3.50;95.60;;;;;;5027421;28;20100;-80
2020/12/27 08:55:06;;;;;;;153.75;47.97;;;-3.50;95.50;;;;;;5029808;28;20111;-79
2020/12/27 08:57:32;;;;;;;118.13;36.35;;;-3.30;96.10;;;;;;5039842;28;20033;-79
2020/12/27 08:59:59;;;;;;;48.47;17.35;;;-3.20;95.40;;;;;;5042752;28;20060;-79
2020/12/27 09:02:24;;;;;;;43.90;18.60;;;-3.10;94.80;;;;;;5041834;28;20068;-79
2020/12/27 09:05:19;;;;;;;42.25;17.17;;;-3.10;94.30;;;;;;5025528;28;20029;-78
2020/12/27 09:07:46;;;;;;;55.35;19.50;;;-3.00;92.70;;;;;;5021424;28;20041;-78
2020/12/27 09:10:17;;;;;;;30.05;13.98;;;-2.90;94.00;;;;;;5039462;28;20040;-78
2020/12/27 09:13:03;;;;;;;34.67;14.85;;;-2.80;93.00;;;;;;5037415;28;20036;-79
2020/12/27 09:15:32;;;;;;;29.33;14.48;;;-2.70;92.70;;;;;;5036690;28;20034;-78
2020/12/27 09:18:04;;;;;;;24.30;11.25;;;-2.60;89.40;;;;;;5036618;28;20128;-78
2020/12/27 09:20:32;;;;;;;34.10;13.05;;;-2.50;86.30;;;;;;5036523;28;20552;-79
2020/12/27 09:22:58;;;;;;;28.15;12.40;;;-2.40;86.40;;;;;;5030049;28;20091;-79
2020/12/27 09:25:25;;;;;;;31.38;13.40;;;-2.30;87.60;;;;;;5021355;28;20026;-78
2020/12/27 09:27:52;;;;;;;29.60;14.32;;;-2.20;87.20;;;;;;5034406;28;20468;-78
2020/12/27 09:30:26;;;;;;;21.42;10.77;;;-2.10;86.40;;;;;;5019189;28;20421;-78
2020/12/27 09:33:01;;;;;;;32.75;14.13;;;-2.00;85.60;;;;;;5033055;28;20125;-78
2020/12/27 09:35:28;;;;;;;36.38;15.95;;;-1.90;86.60;;;;;;5035373;28;20052;-78
2020/12/27 09:37:54;;;;;;;56.78;20.80;;;-1.80;85.00;;;;;;5031466;28;20379;-78
2020/12/27 09:40:20;;;;;;;34.15;12.57;;;-1.70;80.80;;;;;;5016250;28;20038;-78
2020/12/27 09:42:47;;;;;;;25.73;11.63;;;-1.60;79.60;;;;;;5041168;28;20115;-78
2020/12/27 09:45:23;;;;;;;26.27;10.82;;;-1.50;78.20;;;;;;5036779;28;20025;-78
2020/12/27 09:48:00;;;;;;;22.77;10.13;;;-1.50;77.00;;;;;;5022319;28;20582;-78
2020/12/27 09:50:36;;;;;;;19.45;8.63;;;-1.40;77.50;;;;;;5033311;28;20056;-78
2020/12/27 09:53:04;;;;;;;21.45;9.02;;;-1.30;73.80;;;;;;5030696;28;20033;-78
2020/12/27 09:55:30;;;;;;;17.63;9.10;;;-1.20;74.40;;;;;;5042237;28;20028;-80
2020/12/27 09:57:56;;;;;;;77.88;24.02;;;-1.10;74.30;;;;;;5050041;28;20032;-79
2020/12/27 10:00:22;;;;;;;28.00;11.38;;;-1.10;75.10;;;;;;5052658;28;20049;-79
2020/12/27 10:02:48;;;;;;;35.88;14.60;;;-1.00;72.90;;;;;;5050665;28;20495;-78
2020/12/27 10:05:14;;;;;;;22.77;9.07;;;-0.90;72.70;;;;;;5035522;28;20107;-79
2020/12/27 10:07:41;;;;;;;27.25;11.02;;;-0.80;71.00;;;;;;5052956;28;20029;-79
2020/12/27 10:10:08;;;;;;;25.05;9.80;;;-0.70;71.00;;;;;;5035700;28;20028;-79
2020/12/27 10:12:34;;;;;;;17.48;7.75;;;-0.60;69.50;;;;;;5053329;28;20378;-79
2020/12/27 10:15:01;;;;;;;35.28;10.27;;;-0.60;67.50;;;;;;5035580;28;20539;-78
2020/12/27 10:17:26;;;;;;;17.25;7.85;;;-0.50;67.70;;;;;;5035269;28;20467;-78
2020/12/27 10:19:52;;;;;;;18.45;8.27;;;-0.50;66.90;;;;;;5052929;28;20039;-78
2020/12/27 10:22:18;;;;;;;13.55;7.00;;;-0.40;68.20;;;;;;5038801;28;20052;-78
2020/12/27 10:24:44;;;;;;;21.13;7.60;;;-0.30;66.00;;;;;;5035030;28;20178;-79
2020/12/27 10:27:10;;;;;;;13.73;7.05;;;-0.20;66.50;;;;;;5052366;28;20029;-78
2020/12/27 10:29:36;;;;;;;13.05;6.88;;;-0.20;63.60;;;;;;5033536;28;20063;-78
2020/12/27 10:32:05;;;;;;;11.80;6.70;;;-0.10;65.80;;;;;;5049527;28;20374;-78
2020/12/27 10:34:31;;;;;;;12.23;7.60;;;-0.20;65.20;;;;;;5048990;28;20024;-79
2020/12/27 10:36:58;;;;;;;15.30;6.40;;;-0.10;63.90;;;;;;5024980;28;20079;-78
2020/12/27 10:39:25;;;;;;;11.90;6.25;;;-0.10;64.60;;;;;;5040769;28;20032;-79
2020/12/27 10:41:52;;;;;;;13.60;6.78;;;-0.10;63.00;;;;;;5052782;28;20017;-79
2020/12/27 10:44:18;;;;;;;14.38;7.25;;;-0.10;62.80;;;;;;5052542;28;20021;-78
2020/12/27 10:46:45;;;;;;;17.42;7.47;;;0.00;63.70;;;;;;5033934;28;20025;-78
2020/12/27 10:49:13;;;;;;;15.82;8.32;;;0.00;65.00;;;;;;5052992;28;20104;-78
2020/12/27 10:51:40;;;;;;;13.48;7.65;;;0.00;65.00;;;;;;5052054;28;20021;-79
2020/12/27 10:54:07;;;;;;;15.32;7.28;;;0.00;62.30;;;;;;5032178;28;20608;-78
2020/12/27 10:56:33;;;;;;;26.30;10.82;;;0.10;64.20;;;;;;5016021;28;20014;-78
2020/12/27 10:58:59;;;;;;;10.70;6.57;;;0.10;62.40;;;;;;5041584;28;20029;-77
2020/12/27 11:01:26;;;;;;;15.05;7.38;;;0.10;64.20;;;;;;5034347;28;20029;-78
2020/12/27 11:03:52;;;;;;;16.85;7.80;;;0.10;64.20;;;;;;5052530;28;20516;-78
2020/12/27 11:06:18;;;;;;;19.58;9.25;;;0.20;64.40;;;;;;5034300;28;20100;-78
2020/12/27 11:08:43;;;;;;;14.50;7.25;;;0.20;64.90;;;;;;5033785;28;20033;-78
2020/12/27 11:11:10;;;;;;;16.90;7.22;;;0.20;66.00;;;;;;5034814;28;20101;-78
2020/12/27 11:13:36;;;;;;;15.15;7.80;;;0.10;65.40;;;;;;5034674;28;20170;-78
2020/12/27 11:16:02;;;;;;;17.15;8.25;;;0.20;65.90;;;;;;5052714;28;20041;-79
2020/12/27 11:18:28;;;;;;;14.40;8.20;;;0.20;65.90;;;;;;5034589;28;20026;-78
2020/12/27 11:20:53;;;;;;;16.98;7.13;;;0.20;65.00;;;;;;5047101;28;20021;-79
2020/12/27 11:23:20;;;;;;;15.68;6.95;;;0.20;65.10;;;;;;5049728;28;20035;-79
2020/12/27 11:25:45;;;;;;;15.70;8.10;;;0.20;64.90;;;;;;5046868;28;20390;-78
2020/12/27 11:28:11;;;;;;;17.02;8.15;;;0.20;65.10;;;;;;5050786;28;20021;-78
2020/12/27 11:30:36;;;;;;;12.60;7.82;;;0.20;64.40;;;;;;5041504;28;20537;-78
2020/12/27 11:33:02;;;;;;;27.45;13.38;;;0.30;66.60;;;;;;5051652;28;20025;-79
2020/12/27 11:35:28;;;;;;;46.17;17.85;;;0.30;66.40;;;;;;5028784;28;20433;-79
2020/12/27 11:37:54;;;;;;;31.48;15.90;;;0.30;66.80;;;;;;5050992;28;20159;-79
2020/12/27 11:40:20;;;;;;;27.10;11.77;;;0.20;66.50;;;;;;5032668;28;20029;-81
2020/12/27 11:42:46;;;;;;;24.45;10.40;;;0.20;67.60;;;;;;5033694;28;20021;-78
2020/12/27 11:45:12;;;;;;;18.05;9.68;;;0.20;66.40;;;;;;5029695;28;20026;-82
2020/12/27 11:47:38;;;;;;;22.27;10.40;;;0.20;67.00;;;;;;5016586;28;20541;-83
2020/12/27 11:50:05;;;;;;;20.05;9.35;;;0.10;68.00;;;;;;5047966;28;20033;-82
2020/12/27 11:52:31;;;;;;;18.48;9.50;;;0.10;69.30;;;;;;5049344;28;20024;-84
2020/12/27 11:54:57;;;;;;;19.15;9.27;;;0.10;67.20;;;;;;5024445;28;20024;-82
2020/12/27 11:57:22;;;;;;;15.68;9.70;;;0.10;66.80;;;;;;5049088;28;20017;-85
2020/12/27 11:59:48;;;;;;;18.25;8.63;;;0.10;66.40;;;;;;5050536;28;20087;-84
2020/12/27 12:02:14;;;;;;;25.95;9.52;;;0.20;68.90;;;;;;5051509;28;20064;-84
2020/12/27 12:04:39;;;;;;;20.52;8.35;;;0.20;67.10;;;;;;5033080;28;20024;-82
2020/12/27 12:07:05;;;;;;;15.93;8.25;;;0.30;66.10;;;;;;5049667;28;20025;-83
2020/12/27 12:09:31;;;;;;;19.55;8.68;;;0.30;67.30;;;;;;5033419;28;20532;-82
2020/12/27 12:11:57;;;;;;;14.60;9.45;;;0.30;66.30;;;;;;5026709;28;20142;-81
2020/12/27 12:14:23;;;;;;;18.48;8.35;;;0.30;66.00;;;;;;5036656;28;20029;-82
2020/12/27 12:16:49;;;;;;;18.40;8.93;;;0.40;65.80;;;;;;5030639;28;20021;-83
2020/12/27 12:19:14;;;;;;;22.15;9.27;;;0.40;66.10;;;;;;5048855;28;20033;-82
2020/12/27 12:21:40;;;;;;;24.58;11.18;;;0.40;68.20;;;;;;5048998;28;20022;-82
2020/12/27 12:24:06;;;;;;;22.25;12.60;;;0.40;65.50;;;;;;5047260;28;20055;-81
2020/12/27 12:26:32;;;;;;;48.78;22.30;;;0.50;66.80;;;;;;5044557;28;20029;-81
2020/12/27 12:28:59;;;;;;;34.72;17.08;;;0.50;66.00;;;;;;5029247;28;20371;-82
2020/12/27 12:31:26;;;;;;;27.95;11.82;;;0.50;67.90;;;;;;5032582;28;20028;-82
2020/12/27 12:33:53;;;;;;;24.95;10.32;;;0.50;67.40;;;;;;5040987;28;20028;-81
2020/12/27 12:36:20;;;;;;;24.35;11.10;;;0.40;67.50;;;;;;5053032;28;20059;-81